Hovedside
METAR-TAF:

METAR-TAF

Lufthavner :

Skellefteå, Sverige

Skellefteå lufthavn

breddegrad: 64-38N, lengdegrad: 021-05E, høyde over havet: 49 m

Gjeldene værobservasjon

Denne rapporten ble laget for 10 minutter siden, klokken 08:20 UTC
Vind 3 kt fra Nord
Temperatur -14°C
Luftfuktighet 85%
Trykk 1015 hPa
Sikt: 4500 m
Overskyet i en høyde av 400 ft
lett snø

METAR: ESNS 220820Z 35003KT 4500 -SN OVC004 M14/M16 Q1015

Tid: 09:30 (08:30 UTC)

Varsel

Denne rapporten ble laget for 1 time og 51 minutter siden, klokken 06:39 UTC
Varsel gyldig fra 22. klokken 06 UTC til 22. klokken 15 UTC
Vind 5 kt fra Nord
Sikt: 2500 m
Brutte skyer i en høyde av 400 ft
lett snø
Midlertidig
fra 22. klokken 06 UTC til 22. klokken 15 UTC
Sikt: 6000 m
Brutte skyer i en høyde av 3000 ft

TAF: ESNS 220639Z 2206/2215 36005KT 2500 -SN BKN004 TEMPO 2206/2215 6000 BKN030

Værobservasjoner og værvarsel for over 4000 flyplasser (METAR- og TAF-rapporter).

Tilgjengelige stasjoner er representert av de røde og gule prikkene på kartet.

Hold musepekeren over prikken for å se navnet på stasjonen.

Klikk så for å se værobservasjoner og -varsler.

For å forandre kartet kan du klikke på den grønne knappen med svart kryss for å zoome inn, på den grønne knappen med strek for å zoome ut, eller på de grønne pilene for å se tilstøtende kart.


METAR-TAF: